createdAt,value
2018-07-11T00:04:05.209Z,15.60
2018-07-11T00:09:08.873Z,15.50
2018-07-11T00:14:20.736Z,15.50
2018-07-11T00:19:26.695Z,15.40
2018-07-11T00:24:30.513Z,15.30
2018-07-11T00:29:34.386Z,15.30
2018-07-11T00:34:42.870Z,15.30
2018-07-11T00:39:48.238Z,15.00
2018-07-11T00:45:02.525Z,14.90
2018-07-11T00:50:06.580Z,14.80
2018-07-11T00:55:10.388Z,14.80
2018-07-11T01:00:14.721Z,14.70
2018-07-11T01:05:19.377Z,14.70
2018-07-11T01:10:31.126Z,14.80
2018-07-11T01:27:05.897Z,14.40
2018-07-11T01:32:14.311Z,14.30
2018-07-11T01:37:24.067Z,14.20
2018-07-11T01:42:28.800Z,14.10
2018-07-11T01:47:45.260Z,14.00
2018-07-11T01:53:00.914Z,14.00
2018-07-11T01:58:05.979Z,13.90
2018-07-11T02:03:11.913Z,13.90
2018-07-11T02:08:22.800Z,14.00
2018-07-11T02:13:27.478Z,14.10
2018-07-11T02:18:35.558Z,14.10
2018-07-11T02:46:15.967Z,14.30
2018-07-11T02:51:26.801Z,14.20
2018-07-11T02:56:30.962Z,14.00
2018-07-11T03:01:35.477Z,14.10
2018-07-11T03:06:39.428Z,14.10
2018-07-11T03:11:43.704Z,14.20
2018-07-11T03:16:48.487Z,14.20
2018-07-11T03:21:59.520Z,14.30
2018-07-11T03:27:03.624Z,14.10
2018-07-11T03:38:45.562Z,14.20
2018-07-11T03:43:52.856Z,14.10
2018-07-11T03:49:03.138Z,14.10
2018-07-11T03:54:17.580Z,14.20
2018-07-11T04:05:04.808Z,14.40
2018-07-11T04:10:10.375Z,14.50
2018-07-11T04:15:16.168Z,14.70
2018-07-11T04:20:23.619Z,14.80
2018-07-11T04:25:33.637Z,14.70
2018-07-11T04:30:42.415Z,14.80
2018-07-11T04:35:50.872Z,15.00
2018-07-11T04:40:58.068Z,15.10
2018-07-11T04:46:04.633Z,15.30
2018-07-11T04:51:09.683Z,15.30
2018-07-11T04:56:13.178Z,15.40
2018-07-11T05:01:23.993Z,15.40
2018-07-11T05:06:27.598Z,15.40
2018-07-11T05:11:35.294Z,15.50
2018-07-11T05:16:40.814Z,15.30
2018-07-11T05:21:49.393Z,15.20
2018-07-11T05:26:53.019Z,14.90
2018-07-11T05:32:09.355Z,15.10
2018-07-11T05:37:14.269Z,15.20
2018-07-11T05:42:36.972Z,15.30
2018-07-11T05:47:40.599Z,15.30
2018-07-11T05:52:45.429Z,15.40
2018-07-11T05:57:49.221Z,15.70
2018-07-11T06:02:56.680Z,15.70
2018-07-11T06:08:05.615Z,15.80
2018-07-11T06:30:18.962Z,16.50
2018-07-11T06:41:09.424Z,16.80
2018-07-11T06:46:13.977Z,17.00
2018-07-11T06:51:18.590Z,17.10
2018-07-11T06:56:32.204Z,17.30
2018-07-11T07:01:44.690Z,17.60
2018-07-11T07:07:00.126Z,18.10
2018-07-11T07:12:05.135Z,18.20
2018-07-11T07:17:17.879Z,18.40
2018-07-11T07:22:22.436Z,18.30
2018-07-11T07:27:36.085Z,18.50
2018-07-11T07:32:41.093Z,18.50
2018-07-11T07:37:49.844Z,18.20
2018-07-11T07:42:58.352Z,18.00
2018-07-11T07:48:06.026Z,18.20
2018-07-11T07:58:44.613Z,19.50
2018-07-11T08:09:05.145Z,20.20
2018-07-11T08:14:13.034Z,20.80
2018-07-11T08:19:18.934Z,20.90
2018-07-11T08:24:39.029Z,20.90
2018-07-11T08:30:20.541Z,20.60
2018-07-11T08:37:39.996Z,20.20
2018-07-11T08:43:54.504Z,20.10
2018-07-11T08:50:09.096Z,20.00
2018-07-11T08:56:00.770Z,21.00
2018-07-11T09:01:21.512Z,21.90
2018-07-11T09:06:52.485Z,21.00
2018-07-11T09:12:40.920Z,20.20
2018-07-11T09:17:58.684Z,20.20
2018-07-11T09:23:30.176Z,20.10
2018-07-11T09:28:37.076Z,20.30
2018-07-11T09:33:40.960Z,20.60
2018-07-11T09:38:44.713Z,20.60
2018-07-11T09:43:48.584Z,20.90
2018-07-11T09:48:52.505Z,21.10
2018-07-11T10:07:45.746Z,21.30
2018-07-11T10:12:57.523Z,21.40
2018-07-11T10:23:35.470Z,22.80
2018-07-11T11:47:33.355Z,22.60
2018-07-11T11:52:37.157Z,23.10
2018-07-11T11:57:44.344Z,23.60
2018-07-11T12:02:59.539Z,24.50
2018-07-11T12:08:03.466Z,25.10
2018-07-11T12:13:10.356Z,25.10
2018-07-11T12:18:15.411Z,24.90
2018-07-11T12:23:19.613Z,24.80
2018-07-11T12:28:24.685Z,24.70
2018-07-11T12:33:34.372Z,24.30
2018-07-11T12:38:43.108Z,23.70
2018-07-11T12:43:46.652Z,23.30
2018-07-11T12:48:55.613Z,23.00
2018-07-11T12:54:00.496Z,22.20
2018-07-11T12:59:09.345Z,21.20
2018-07-11T13:04:16.281Z,20.60
2018-07-11T13:09:20.045Z,20.40
2018-07-11T13:14:24.739Z,20.10
2018-07-11T13:19:31.121Z,19.80
2018-07-11T13:24:35.907Z,19.60
2018-07-11T13:29:42.989Z,19.70
2018-07-11T13:35:09.470Z,20.00
2018-07-11T13:40:17.980Z,20.00
2018-07-11T13:45:24.863Z,20.50
2018-07-11T14:01:36.334Z,21.50
2018-07-11T14:06:40.360Z,21.60
2018-07-11T14:11:48.596Z,21.80
2018-07-11T14:22:07.969Z,23.00
2018-07-11T14:27:15.223Z,23.30
2018-07-11T14:32:19.295Z,23.50
2018-07-11T14:37:23.172Z,23.80
2018-07-11T14:42:27.883Z,23.70
2018-07-11T14:47:40.237Z,23.50
2018-07-11T14:52:45.238Z,23.10
2018-07-11T14:57:49.543Z,22.80
2018-07-11T15:02:53.958Z,22.40
2018-07-11T15:08:04.153Z,22.20
2018-07-11T15:13:10.021Z,21.90
2018-07-11T15:18:17.028Z,21.70
2018-07-11T15:23:24.358Z,21.40
2018-07-11T15:28:29.095Z,21.20
2018-07-11T15:33:32.738Z,21.00
2018-07-11T15:38:37.810Z,20.90
2018-07-11T15:43:41.419Z,20.90
2018-07-11T15:48:47.682Z,21.20
2018-07-11T15:53:57.172Z,21.50
2018-07-11T15:59:08.564Z,21.80
2018-07-11T16:04:20.413Z,22.10
2018-07-11T16:09:26.284Z,22.30
2018-07-11T16:15:09.911Z,22.30
2018-07-11T16:20:13.794Z,22.40
2018-07-11T16:25:17.499Z,22.30
2018-07-11T16:30:23.166Z,21.80
2018-07-11T16:35:26.891Z,21.10
2018-07-11T16:40:34.913Z,20.90
2018-07-11T16:45:41.801Z,20.80
2018-07-11T16:50:45.487Z,20.80
2018-07-11T17:23:30.462Z,20.50
2018-07-11T17:28:40.556Z,20.50
2018-07-11T17:33:44.199Z,20.50
2018-07-11T17:38:55.759Z,20.70
2018-07-11T17:44:05.292Z,20.50
2018-07-11T17:49:16.655Z,20.50
2018-07-11T17:54:21.292Z,20.50
2018-07-11T17:59:40.990Z,20.40
2018-07-11T18:04:53.188Z,20.20
2018-07-11T18:10:04.695Z,20.10
2018-07-11T18:15:18.546Z,20.00
2018-07-11T18:20:33.172Z,19.80
2018-07-11T18:26:19.353Z,19.90
2018-07-11T18:32:03.003Z,19.70
2018-07-11T18:37:14.970Z,19.60
2018-07-11T18:43:31.366Z,19.70
2018-07-11T18:48:46.159Z,19.60
2018-07-11T18:54:58.168Z,19.40
2018-07-11T19:01:12.048Z,19.40
2018-07-11T19:07:29.603Z,19.20
2018-07-11T19:13:41.421Z,19.10
2018-07-11T19:19:00.646Z,19.00
2018-07-11T19:24:09.769Z,19.00
2018-07-11T19:35:26.705Z,18.80
2018-07-11T19:40:45.937Z,18.80
2018-07-11T19:47:02.107Z,18.50
2018-07-11T19:52:15.853Z,18.20
2018-07-11T19:57:19.661Z,18.30
2018-07-11T20:02:29.152Z,18.20
2018-07-11T20:07:34.656Z,18.10
2018-07-11T20:12:38.416Z,17.90
2018-07-11T20:17:47.845Z,17.80
2018-07-11T20:23:14.288Z,17.80
2018-07-11T20:28:18.447Z,17.70
2018-07-11T20:33:22.197Z,17.70
2018-07-11T20:38:26.640Z,17.60
2018-07-11T20:43:31.488Z,17.40
2018-07-11T20:48:36.241Z,17.30
2018-07-11T20:53:42.005Z,17.30
2018-07-11T21:26:28.858Z,16.90
2018-07-11T21:31:35.595Z,16.90
2018-07-11T21:36:43.510Z,16.80
2018-07-11T21:41:47.905Z,16.80
2018-07-11T21:47:00.300Z,16.80
2018-07-11T21:52:04.887Z,16.80
2018-07-11T21:57:09.008Z,16.90
2018-07-11T22:02:14.899Z,16.90
2018-07-11T22:07:19.112Z,16.80
2018-07-11T22:12:23.249Z,16.80
2018-07-11T22:17:46.049Z,16.70
2018-07-11T22:22:53.890Z,16.70
2018-07-11T22:27:59.325Z,16.70
2018-07-11T22:34:54.164Z,16.80
2018-07-11T22:40:02.080Z,16.90
2018-07-11T22:45:05.699Z,16.90
2018-07-11T22:50:10.028Z,16.70
2018-07-11T22:55:26.094Z,16.60
2018-07-11T23:00:44.319Z,16.60
2018-07-11T23:05:47.490Z,16.60
2018-07-11T23:10:58.172Z,16.70
2018-07-11T23:16:02.008Z,16.80
2018-07-11T23:21:06.971Z,16.80
2018-07-11T23:26:17.450Z,16.80
2018-07-11T23:53:45.377Z,16.90
